Pacific Pathfinder — PATH — position and weather

sailwx.info

Track history (hours):
 
Tides and Currents Weather Stations Pressure Air Temp Water Temp Dewpoint Dewpoint Depression Visibility Wind Speed Wind Dir Waves Ship Positions

Pacific Pathfinder

Last reported at 2018-Feb-18 06:29 UTC. Time now 2018-Feb-18 06:36 UTC.
Position N 54°21' W 130°45'.

Length 22 m; draft 1.3 m.

Type: Pilot. MMSI: 316003484.

Date/timePositionNaut miles runAvg speedWind from/ knotsBaromVisibWave heightAir tempDewpointWater temp
2018-Feb-18 06:29N 54°21' W 130°45'5 3.5
2018-Feb-18 05:06N 54°19' W 130°53'0 3.5
2018-Feb-18 04:58N 54°18' W 130°53'817.9
2018-Feb-18 04:30N 54°16' W 130°40'1019.8
2018-Feb-18 04:00N 54°14' W 130°23'4 0.2
2018-Feb-17 12:07N 54°17' W 130°22'112.8
2018-Feb-17 12:01N 54°16' W 130°22'816.9
2018-Feb-17 11:30N 54°16' W 130°36'714.8
2018-Feb-17 11:00N 54°17' W 130°49'611.8
2018-Feb-17 10:31N 54°15' W 130°39'917.4
2018-Feb-17 10:00N 54°14' W 130°25'6 0.6
2018-Feb-16 22:42N 54°19' W 130°19'0 0.2
2018-Feb-16 21:49N 54°19' W 130°19'2 0.1
2018-Feb-16 02:43N 54°17' W 130°22'315.5
2018-Feb-16 02:30N 54°14' W 130°22'1121.7
2018-Feb-16 02:01N 54°16' W 130°40'4 8.8
2018-Feb-16 01:30N 54°16' W 130°47'4 7.7
2018-Feb-16 01:00N 54°12' W 130°46'0 0.0
2018-Feb-16 00:30N 54°12' W 130°46'0 0.0
2018-Feb-16 00:01N 54°12' W 130°46'0 0.0
2018-Feb-15 23:31N 54°12' W 130°46'0 0.0
2018-Feb-15 23:00N 54°12' W 130°46'0 0.0
2018-Feb-15 22:30N 54°12' W 130°46'0 0.0
2018-Feb-15 22:00N 54°12' W 130°46'5 9.2
2018-Feb-15 21:30N 54°17' W 130°48'2 3.2
2018-Feb-15 20:51N 54°18' W 130°51'722.2
2018-Feb-15 20:30N 54°16' W 130°39'1020.0
2018-Feb-15 20:00N 54°15' W 130°21'4 5.2
2018-Feb-15 19:16N 54°19' W 130°24'2 0.5
2018-Feb-15 16:16N 54°18' W 130°22'313.1
2018-Feb-15 16:00N 54°20' W 130°27'1520.7
2018-Feb-15 15:15N 54°19' W 130°53'415.3
2018-Feb-15 15:01N 54°17' W 130°47'1122.8
2018-Feb-15 14:31N 54°14' W 130°28'610.7
2018-Feb-15 13:59N 54°18' W 130°22'714.2
2018-Feb-15 13:30N 54°18' W 130°34'1121.6
2018-Feb-15 12:59N 54°19' W 130°53'3 6.9
2018-Feb-15 12:30N 54°18' W 130°48'816.4
2018-Feb-15 12:00N 54°18' W 130°34'711.9
2018-Feb-15 11:23N 54°18' W 130°22'512.0
2018-Feb-15 10:59N 54°19' W 130°30'1121.0
2018-Feb-15 10:27N 54°18' W 130°49'4 8.5
2018-Feb-15 09:57N 54°15' W 130°45'2 5.5
2018-Feb-15 09:30N 54°12' W 130°46'0 0.0
2018-Feb-15 09:00N 54°12' W 130°46'0 0.0
2018-Feb-15 08:30N 54°12' W 130°46'0 0.0
2018-Feb-15 08:00N 54°12' W 130°46'0 0.0
2018-Feb-15 07:30N 54°12' W 130°46'4 6.9
2018-Feb-15 07:00N 54°16' W 130°48'1 2.9
2018-Feb-15 06:30N 54°17' W 130°47'1122.0
2018-Feb-15 06:01N 54°14' W 130°29'7 0.8
2018-Feb-14 21:16N 54°19' W 130°20'1 2.9
2018-Feb-14 21:00N 54°19' W 130°19'2 0.2
2018-Feb-14 09:36N 54°18' W 130°22'115.6
2018-Feb-14 09:30N 54°19' W 130°24'816.9
2018-Feb-14 09:00N 54°16' W 130°37'6 7.2
2018-Feb-14 08:14N 54°19' W 130°30'416.7
2018-Feb-14 08:00N 54°18' W 130°36'1019.3
2018-Feb-14 07:30N 54°19' W 130°52'1122.5
2018-Feb-14 07:00N 54°15' W 130°34'8 4.9
2018-Feb-14 05:26N 54°18' W 130°22'715.5
2018-Feb-14 05:00N 54°18' W 130°34'1019.4
2018-Feb-14 04:30N 54°19' W 130°50'612.8
2018-Feb-14 04:00N 54°16' W 130°40'1121.6
2018-Feb-14 03:30N 54°14' W 130°22'4 2.8
2018-Feb-14 02:10N 54°18' W 130°21'214.1
2018-Feb-14 02:00N 54°19' W 130°25'1218.2
2018-Feb-14 01:20N 54°19' W 130°45'410.7
2018-Feb-14 00:59N 54°20' W 130°39'816.1
2018-Feb-14 00:30N 54°20' W 130°26'4 2.2
2018-Feb-13 22:46N 54°19' W 130°19'0 0.7
2018-Feb-13 22:30N 54°19' W 130°19'2 0.1
2018-Feb-13 06:52N 54°18' W 130°22'614.6
2018-Feb-13 06:29N 54°18' W 130°31'1118.1
2018-Feb-13 05:52N 54°18' W 130°50'412.1
2018-Feb-13 05:30N 54°16' W 130°44'612.1
2018-Feb-13 05:00N 54°14' W 130°35'612.1
2018-Feb-13 04:31N 54°13' W 130°24'3 6.8
2018-Feb-13 04:00N 54°16' W 130°22'2 1.0
2018-Feb-13 01:44N 54°18' W 130°23'414.4
2018-Feb-13 01:27N 54°19' W 130°30'1321.4
2018-Feb-13 00:52N 54°18' W 130°51'410.9
2018-Feb-13 00:30N 54°15' W 130°47'2 3.9
2018-Feb-13 00:00N 54°13' W 130°47'1 1.8
2018-Feb-12 23:30N 54°12' W 130°46'0 0.0
2018-Feb-12 23:00N 54°12' W 130°46'0 0.0
2018-Feb-12 22:30N 54°12' W 130°46'0 0.0
2018-Feb-12 22:00N 54°12' W 130°46'0 0.0
2018-Feb-12 21:30N 54°12' W 130°46'0 0.0
2018-Feb-12 21:00N 54°12' W 130°46'0 0.0
2018-Feb-12 20:30N 54°12' W 130°46'0 0.0
2018-Feb-12 20:01N 54°12' W 130°46'611.5
2018-Feb-12 19:28N 54°18' W 130°51'1023.0
2018-Feb-12 19:00N 54°15' W 130°34'8 0.2
2018-Feb-10 21:03N 54°18' W 130°21'1 8.2
2018-Feb-10 20:58N 54°18' W 130°22'611.4
2018-Feb-10 20:28N 54°18' W 130°32'1214.3
2018-Feb-10 19:39N 54°18' W 130°52'322.4
2018-Feb-10 19:30N 54°17' W 130°47'1121.9
2018-Feb-10 19:01N 54°14' W 130°29'8 6.3
2018-Feb-10 17:49N 54°19' W 130°19'0 0.5
2018-Feb-10 17:21N 54°19' W 130°19'2 0.3
2018-Feb-10 10:09N 54°18' W 130°21'210.2
2018-Feb-10 10:00N 54°19' W 130°23'1218.3
2018-Feb-10 09:20N 54°18' W 130°44'1 3.9
2018-Feb-10 09:00N 54°17' W 130°46'3 5.6
2018-Feb-10 08:30N 54°14' W 130°45'2 4.3
2018-Feb-10 08:00N 54°16' W 130°48'5 6.3
2018-Feb-10 07:15N 54°19' W 130°54'623.0
2018-Feb-10 07:00N 54°16' W 130°46'817.0
2018-Feb-10 06:31N 54°13' W 130°32'510.2
2018-Feb-10 06:01N 54°13' W 130°24'5 3.3
2018-Feb-10 04:39N 54°18' W 130°21'1 7.7
2018-Feb-10 04:31N 54°17' W 130°22'815.0
2018-Feb-10 04:00N 54°15' W 130°34'1121.2
2018-Feb-10 03:29N 54°19' W 130°53'814.9
2018-Feb-10 02:58N 54°18' W 130°40'2 5.2
2018-Feb-10 02:30N 54°18' W 130°36'1120.6
2018-Feb-10 01:58N 54°19' W 130°55'3 6.3
2018-Feb-10 01:29N 54°18' W 130°49'1121.9
2018-Feb-10 00:57N 54°19' W 130°30'5 0.2
2018-Feb-08 20:30N 54°14' W 130°32'612.1
2018-Feb-08 20:00N 54°14' W 130°22'1 0.1
2018-Feb-08 13:00N 54°14' W 130°20'0 0.3
2018-Feb-08 12:30N 54°14' W 130°21'4 8.6
2018-Feb-08 12:00N 54°14' W 130°28'  
Track history (hours):
 
Tides and Currents Weather Stations Pressure Air Temp Water Temp Dewpoint Dewpoint Depression Visibility Wind Speed Wind Dir Waves Ship Positions

Pacific Pathfinder

Last reported at 2018-Feb-18 06:29 UTC. Time now 2018-Feb-18 06:36 UTC.
Position N 54°21' W 130°45'.

Length 22 m; draft 1.3 m.

Type: Pilot. MMSI: 316003484.

Date/timePositionNaut miles runAvg speedWind from/ knotsBaromVisibWave heightAir tempDewpointWater temp
2018-Feb-18 06:29N 54°21' W 130°45'5 3.5
2018-Feb-18 05:06N 54°19' W 130°53'0 3.5
2018-Feb-18 04:58N 54°18' W 130°53'817.9
2018-Feb-18 04:30N 54°16' W 130°40'1019.8
2018-Feb-18 04:00N 54°14' W 130°23'4 0.2
2018-Feb-17 12:07N 54°17' W 130°22'112.8
2018-Feb-17 12:01N 54°16' W 130°22'816.9
2018-Feb-17 11:30N 54°16' W 130°36'714.8
2018-Feb-17 11:00N 54°17' W 130°49'611.8
2018-Feb-17 10:31N 54°15' W 130°39'917.4
2018-Feb-17 10:00N 54°14' W 130°25'6 0.6
2018-Feb-16 22:42N 54°19' W 130°19'0 0.2
2018-Feb-16 21:49N 54°19' W 130°19'2 0.1
2018-Feb-16 02:43N 54°17' W 130°22'315.5
2018-Feb-16 02:30N 54°14' W 130°22'1121.7
2018-Feb-16 02:01N 54°16' W 130°40'4 8.8
2018-Feb-16 01:30N 54°16' W 130°47'4 7.7
2018-Feb-16 01:00N 54°12' W 130°46'0 0.0
2018-Feb-16 00:30N 54°12' W 130°46'0 0.0
2018-Feb-16 00:01N 54°12' W 130°46'0 0.0
2018-Feb-15 23:31N 54°12' W 130°46'0 0.0
2018-Feb-15 23:00N 54°12' W 130°46'0 0.0
2018-Feb-15 22:30N 54°12' W 130°46'0 0.0
2018-Feb-15 22:00N 54°12' W 130°46'5 9.2
2018-Feb-15 21:30N 54°17' W 130°48'2 3.2
2018-Feb-15 20:51N 54°18' W 130°51'722.2
2018-Feb-15 20:30N 54°16' W 130°39'1020.0
2018-Feb-15 20:00N 54°15' W 130°21'4 5.2
2018-Feb-15 19:16N 54°19' W 130°24'2 0.5
2018-Feb-15 16:16N 54°18' W 130°22'313.1
2018-Feb-15 16:00N 54°20' W 130°27'1520.7
2018-Feb-15 15:15N 54°19' W 130°53'415.3
2018-Feb-15 15:01N 54°17' W 130°47'1122.8
2018-Feb-15 14:31N 54°14' W 130°28'610.7
2018-Feb-15 13:59N 54°18' W 130°22'714.2
2018-Feb-15 13:30N 54°18' W 130°34'1121.6
2018-Feb-15 12:59N 54°19' W 130°53'3 6.9
2018-Feb-15 12:30N 54°18' W 130°48'816.4
2018-Feb-15 12:00N 54°18' W 130°34'711.9
2018-Feb-15 11:23N 54°18' W 130°22'512.0
2018-Feb-15 10:59N 54°19' W 130°30'1121.0
2018-Feb-15 10:27N 54°18' W 130°49'4 8.5
2018-Feb-15 09:57N 54°15' W 130°45'2 5.5
2018-Feb-15 09:30N 54°12' W 130°46'0 0.0
2018-Feb-15 09:00N 54°12' W 130°46'0 0.0
2018-Feb-15 08:30N 54°12' W 130°46'0 0.0
2018-Feb-15 08:00N 54°12' W 130°46'0 0.0
2018-Feb-15 07:30N 54°12' W 130°46'4 6.9
2018-Feb-15 07:00N 54°16' W 130°48'1 2.9
2018-Feb-15 06:30N 54°17' W 130°47'1122.0
2018-Feb-15 06:01N 54°14' W 130°29'7 0.8
2018-Feb-14 21:16N 54°19' W 130°20'1 2.9
2018-Feb-14 21:00N 54°19' W 130°19'2 0.2
2018-Feb-14 09:36N 54°18' W 130°22'115.6
2018-Feb-14 09:30N 54°19' W 130°24'816.9
2018-Feb-14 09:00N 54°16' W 130°37'6 7.2
2018-Feb-14 08:14N 54°19' W 130°30'416.7
2018-Feb-14 08:00N 54°18' W 130°36'1019.3
2018-Feb-14 07:30N 54°19' W 130°52'1122.5
2018-Feb-14 07:00N 54°15' W 130°34'8 4.9
2018-Feb-14 05:26N 54°18' W 130°22'715.5
2018-Feb-14 05:00N 54°18' W 130°34'1019.4
2018-Feb-14 04:30N 54°19' W 130°50'612.8
2018-Feb-14 04:00N 54°16' W 130°40'1121.6
2018-Feb-14 03:30N 54°14' W 130°22'4 2.8
2018-Feb-14 02:10N 54°18' W 130°21'214.1
2018-Feb-14 02:00N 54°19' W 130°25'1218.2
2018-Feb-14 01:20N 54°19' W 130°45'410.7
2018-Feb-14 00:59N 54°20' W 130°39'816.1
2018-Feb-14 00:30N 54°20' W 130°26'4 2.2
2018-Feb-13 22:46N 54°19' W 130°19'0 0.7
2018-Feb-13 22:30N 54°19' W 130°19'2 0.1
2018-Feb-13 06:52N 54°18' W 130°22'614.6
2018-Feb-13 06:29N 54°18' W 130°31'1118.1
2018-Feb-13 05:52N 54°18' W 130°50'412.1
2018-Feb-13 05:30N 54°16' W 130°44'612.1
2018-Feb-13 05:00N 54°14' W 130°35'612.1
2018-Feb-13 04:31N 54°13' W 130°24'3 6.8
2018-Feb-13 04:00N 54°16' W 130°22'2 1.0
2018-Feb-13 01:44N 54°18' W 130°23'414.4
2018-Feb-13 01:27N 54°19' W 130°30'1321.4
2018-Feb-13 00:52N 54°18' W 130°51'410.9
2018-Feb-13 00:30N 54°15' W 130°47'2 3.9
2018-Feb-13 00:00N 54°13' W 130°47'1 1.8
2018-Feb-12 23:30N 54°12' W 130°46'0 0.0
2018-Feb-12 23:00N 54°12' W 130°46'0 0.0
2018-Feb-12 22:30N 54°12' W 130°46'0 0.0
2018-Feb-12 22:00N 54°12' W 130°46'0 0.0
2018-Feb-12 21:30N 54°12' W 130°46'0 0.0
2018-Feb-12 21:00N 54°12' W 130°46'0 0.0
2018-Feb-12 20:30N 54°12' W 130°46'0 0.0
2018-Feb-12 20:01N 54°12' W 130°46'611.5
2018-Feb-12 19:28N 54°18' W 130°51'1023.0
2018-Feb-12 19:00N 54°15' W 130°34'8 0.2
2018-Feb-10 21:03N 54°18' W 130°21'1 8.2
2018-Feb-10 20:58N 54°18' W 130°22'611.4
2018-Feb-10 20:28N 54°18' W 130°32'1214.3
2018-Feb-10 19:39N 54°18' W 130°52'322.4
2018-Feb-10 19:30N 54°17' W 130°47'1121.9
2018-Feb-10 19:01N 54°14' W 130°29'8 6.3
2018-Feb-10 17:49N 54°19' W 130°19'0 0.5
2018-Feb-10 17:21N 54°19' W 130°19'2 0.3
2018-Feb-10 10:09N 54°18' W 130°21'210.2
2018-Feb-10 10:00N 54°19' W 130°23'1218.3
2018-Feb-10 09:20N 54°18' W 130°44'1 3.9
2018-Feb-10 09:00N 54°17' W 130°46'3 5.6
2018-Feb-10 08:30N 54°14' W 130°45'2 4.3
2018-Feb-10 08:00N 54°16' W 130°48'5 6.3
2018-Feb-10 07:15N 54°19' W 130°54'623.0
2018-Feb-10 07:00N 54°16' W 130°46'817.0
2018-Feb-10 06:31N 54°13' W 130°32'510.2
2018-Feb-10 06:01N 54°13' W 130°24'5 3.3
2018-Feb-10 04:39N 54°18' W 130°21'1 7.7
2018-Feb-10 04:31N 54°17' W 130°22'815.0
2018-Feb-10 04:00N 54°15' W 130°34'1121.2
2018-Feb-10 03:29N 54°19' W 130°53'814.9
2018-Feb-10 02:58N 54°18' W 130°40'2 5.2
2018-Feb-10 02:30N 54°18' W 130°36'1120.6
2018-Feb-10 01:58N 54°19' W 130°55'3 6.3
2018-Feb-10 01:29N 54°18' W 130°49'1121.9
2018-Feb-10 00:57N 54°19' W 130°30'5 0.2
2018-Feb-08 20:30N 54°14' W 130°32'612.1
2018-Feb-08 20:00N 54°14' W 130°22'1 0.1
2018-Feb-08 13:00N 54°14' W 130°20'0 0.3
2018-Feb-08 12:30N 54°14' W 130°21'4 8.6
2018-Feb-08 12:00N 54°14' W 130°28'  

Dump ship's entire track history